sensor_id;sensor_type;location;lat;lon;timestamp;temperature;humidity
5792;DHT22;2922;53.482;10.006;2022-11-12T00:00:36;7.20;99.90
5792;DHT22;2922;53.482;10.006;2022-11-12T00:03:02;7.20;99.90
5792;DHT22;2922;53.482;10.006;2022-11-12T00:05:28;7.20;99.90
5792;DHT22;2922;53.482;10.006;2022-11-12T00:07:53;7.10;99.90
5792;DHT22;2922;53.482;10.006;2022-11-12T00:10:19;7.10;99.90
5792;DHT22;2922;53.482;10.006;2022-11-12T00:12:45;7.10;99.90
5792;DHT22;2922;53.482;10.006;2022-11-12T00:15:10;7.10;99.90
5792;DHT22;2922;53.482;10.006;2022-11-12T00:17:36;7.10;99.90
5792;DHT22;2922;53.482;10.006;2022-11-12T00:20:02;7.20;99.90
5792;DHT22;2922;53.482;10.006;2022-11-12T00:22:28;7.20;99.90
5792;DHT22;2922;53.482;10.006;2022-11-12T00:24:53;7.20;99.90
5792;DHT22;2922;53.482;10.006;2022-11-12T00:27:19;7.20;99.90
5792;DHT22;2922;53.482;10.006;2022-11-12T00:29:45;7.30;99.90
5792;DHT22;2922;53.482;10.006;2022-11-12T00:32:11;7.30;99.90
5792;DHT22;2922;53.482;10.006;2022-11-12T00:34:36;7.40;99.90
5792;DHT22;2922;53.482;10.006;2022-11-12T00:37:02;7.40;99.90
5792;DHT22;2922;53.482;10.006;2022-11-12T00:39:28;7.40;99.90
5792;DHT22;2922;53.482;10.006;2022-11-12T00:41:54;7.50;99.90
5792;DHT22;2922;53.482;10.006;2022-11-12T00:44:20;7.50;99.90
5792;DHT22;2922;53.482;10.006;2022-11-12T00:46:45;7.50;99.90
5792;DHT22;2922;53.482;10.006;2022-11-12T00:49:11;7.60;99.90
5792;DHT22;2922;53.482;10.006;2022-11-12T00:51:37;7.60;99.90
5792;DHT22;2922;53.482;10.006;2022-11-12T00:54:03;7.70;99.90
5792;DHT22;2922;53.482;10.006;2022-11-12T00:56:29;7.70;99.90
5792;DHT22;2922;53.482;10.006;2022-11-12T00:58:55;7.70;99.90
5792;DHT22;2922;53.482;10.006;2022-11-12T01:01:21;7.70;99.90
5792;DHT22;2922;53.482;10.006;2022-11-12T01:03:47;7.70;99.90
5792;DHT22;2922;53.482;10.006;2022-11-12T01:06:16;7.70;99.90
5792;DHT22;2922;53.482;10.006;2022-11-12T01:08:42;7.80;99.90
5792;DHT22;2922;53.482;10.006;2022-11-12T01:11:13;7.80;99.90
5792;DHT22;2922;53.482;10.006;2022-11-12T01:13:41;7.80;99.90
5792;DHT22;2922;53.482;10.006;2022-11-12T01:16:13;7.90;99.90
5792;DHT22;2922;53.482;10.006;2022-11-12T01:18:39;7.90;99.90
5792;DHT22;2922;53.482;10.006;2022-11-12T01:21:06;7.90;99.90
5792;DHT22;2922;53.482;10.006;2022-11-12T01:23:33;7.90;99.90
5792;DHT22;2922;53.482;10.006;2022-11-12T01:26:03;8.00;99.90
5792;DHT22;2922;53.482;10.006;2022-11-12T01:28:29;8.00;99.90
5792;DHT22;2922;53.482;10.006;2022-11-12T01:30:55;8.00;99.90
5792;DHT22;2922;53.482;10.006;2022-11-12T01:33:20;8.10;99.90
5792;DHT22;2922;53.482;10.006;2022-11-12T01:35:46;8.10;99.90
5792;DHT22;2922;53.482;10.006;2022-11-12T01:38:11;8.10;99.90
5792;DHT22;2922;53.482;10.006;2022-11-12T01:40:37;8.10;99.90
5792;DHT22;2922;53.482;10.006;2022-11-12T01:43:04;8.10;99.90
5792;DHT22;2922;53.482;10.006;2022-11-12T01:45:33;8.10;99.90
5792;DHT22;2922;53.482;10.006;2022-11-12T01:47:59;8.10;99.90
5792;DHT22;2922;53.482;10.006;2022-11-12T01:50:33;8.10;99.90
5792;DHT22;2922;53.482;10.006;2022-11-12T01:53:05;8.20;99.90
5792;DHT22;2922;53.482;10.006;2022-11-12T01:55:34;8.20;99.90
5792;DHT22;2922;53.482;10.006;2022-11-12T07:30:01;5.00;99.90
5792;DHT22;2922;53.482;10.006;2022-11-12T07:32:26;5.10;99.90
5792;DHT22;2922;53.482;10.006;2022-11-12T07:34:52;5.10;99.90
5792;DHT22;2922;53.482;10.006;2022-11-12T07:37:18;5.10;99.90
5792;DHT22;2922;53.482;10.006;2022-11-12T07:39:43;5.10;99.90
5792;DHT22;2922;53.482;10.006;2022-11-12T07:42:09;5.10;99.90
5792;DHT22;2922;53.482;10.006;2022-11-12T07:44:34;5.10;99.90
5792;DHT22;2922;53.482;10.006;2022-11-12T07:47:00;5.10;99.90
5792;DHT22;2922;53.482;10.006;2022-11-12T07:49:25;5.20;99.90
5792;DHT22;2922;53.482;10.006;2022-11-12T07:51:51;5.30;99.90
5792;DHT22;2922;53.482;10.006;2022-11-12T07:54:16;5.50;99.90
5792;DHT22;2922;53.482;10.006;2022-11-12T07:56:42;5.60;99.90
5792;DHT22;2922;53.482;10.006;2022-11-12T07:59:07;5.70;99.90
5792;DHT22;2922;53.482;10.006;2022-11-12T08:01:40;5.70;99.90
5792;DHT22;2922;53.482;10.006;2022-11-12T08:04:08;5.80;99.90
5792;DHT22;2922;53.482;10.006;2022-11-12T08:06:34;5.90;99.90
5792;DHT22;2922;53.482;10.006;2022-11-12T08:09:02;6.00;99.90
5792;DHT22;2922;53.482;10.006;2022-11-12T08:11:29;6.20;99.90
5792;DHT22;2922;53.482;10.006;2022-11-12T08:13:54;6.30;99.90
5792;DHT22;2922;53.482;10.006;2022-11-12T08:16:20;6.40;99.90
5792;DHT22;2922;53.482;10.006;2022-11-12T08:18:46;6.50;99.90
5792;DHT22;2922;53.482;10.006;2022-11-12T08:21:14;6.60;99.90
5792;DHT22;2922;53.482;10.006;2022-11-12T08:23:40;6.70;99.90
5792;DHT22;2922;53.482;10.006;2022-11-12T08:26:08;6.90;99.90
5792;DHT22;2922;53.482;10.006;2022-11-12T08:28:36;7.00;99.90
5792;DHT22;2922;53.482;10.006;2022-11-12T08:31:05;7.10;99.90
5792;DHT22;2922;53.482;10.006;2022-11-12T08:33:32;7.30;99.90
5792;DHT22;2922;53.482;10.006;2022-11-12T08:35:58;7.40;99.90
5792;DHT22;2922;53.482;10.006;2022-11-12T08:38:26;7.50;99.90
5792;DHT22;2922;53.482;10.006;2022-11-12T08:40:51;7.60;99.90
5792;DHT22;2922;53.482;10.006;2022-11-12T08:43:17;7.70;99.90
5792;DHT22;2922;53.482;10.006;2022-11-12T08:45:43;7.90;99.90
5792;DHT22;2922;53.482;10.006;2022-11-12T08:48:11;8.00;99.90
5792;DHT22;2922;53.482;10.006;2022-11-12T08:50:39;8.10;99.90
5792;DHT22;2922;53.482;10.006;2022-11-12T08:53:06;8.30;99.90
5792;DHT22;2922;53.482;10.006;2022-11-12T08:55:33;8.40;99.90
5792;DHT22;2922;53.482;10.006;2022-11-12T08:57:59;8.50;99.90
5792;DHT22;2922;53.482;10.006;2022-11-12T09:00:28;8.60;99.90
5792;DHT22;2922;53.482;10.006;2022-11-12T09:02:53;8.80;99.90
5792;DHT22;2922;53.482;10.006;2022-11-12T09:05:19;8.80;99.90
5792;DHT22;2922;53.482;10.006;2022-11-12T09:07:45;8.90;99.90
5792;DHT22;2922;53.482;10.006;2022-11-12T09:10:10;9.10;99.90
5792;DHT22;2922;53.482;10.006;2022-11-12T09:12:36;9.30;99.90
5792;DHT22;2922;53.482;10.006;2022-11-12T09:15:03;9.40;99.90
5792;DHT22;2922;53.482;10.006;2022-11-12T09:17:28;9.60;99.90
5792;DHT22;2922;53.482;10.006;2022-11-12T09:19:55;9.60;99.90
5792;DHT22;2922;53.482;10.006;2022-11-12T09:22:20;9.80;99.90
5792;DHT22;2922;53.482;10.006;2022-11-12T09:24:46;10.00;99.90
5792;DHT22;2922;53.482;10.006;2022-11-12T09:27:11;10.10;99.90
5792;DHT22;2922;53.482;10.006;2022-11-12T09:29:37;10.20;99.90
5792;DHT22;2922;53.482;10.006;2022-11-12T09:32:03;10.40;99.90
5792;DHT22;2922;53.482;10.006;2022-11-12T09:34:28;10.50;99.90
5792;DHT22;2922;53.482;10.006;2022-11-12T09:36:54;10.60;99.90
5792;DHT22;2922;53.482;10.006;2022-11-12T09:39:20;10.60;99.90
5792;DHT22;2922;53.482;10.006;2022-11-12T09:41:45;10.60;99.90
5792;DHT22;2922;53.482;10.006;2022-11-12T09:44:17;10.80;99.90
5792;DHT22;2922;53.482;10.006;2022-11-12T09:46:47;10.80;99.90
5792;DHT22;2922;53.482;10.006;2022-11-12T09:51:49;11.00;99.90
5792;DHT22;2922;53.482;10.006;2022-11-12T09:54:25;11.00;99.90
5792;DHT22;2922;53.482;10.006;2022-11-12T09:56:53;11.20;99.90
5792;DHT22;2922;53.482;10.006;2022-11-12T09:59:20;11.30;99.90
5792;DHT22;2922;53.482;10.006;2022-11-12T10:07:48;11.30;99.90
5792;DHT22;2922;53.482;10.006;2022-11-12T10:10:23;11.40;99.90
5792;DHT22;2922;53.482;10.006;2022-11-12T10:18:53;11.70;99.90
5792;DHT22;2922;53.482;10.006;2022-11-12T10:24:20;11.70;99.90
5792;DHT22;2922;53.482;10.006;2022-11-12T10:26:47;11.80;99.90
5792;DHT22;2922;53.482;10.006;2022-11-12T10:31:50;11.90;99.90
5792;DHT22;2922;53.482;10.006;2022-11-12T10:34:20;12.00;99.90
5792;DHT22;2922;53.482;10.006;2022-11-12T10:37:00;12.10;99.90
5792;DHT22;2922;53.482;10.006;2022-11-12T10:39:56;12.20;99.90
5792;DHT22;2922;53.482;10.006;2022-11-12T10:42:22;12.30;99.90
5792;DHT22;2922;53.482;10.006;2022-11-12T10:44:48;12.30;99.90
5792;DHT22;2922;53.482;10.006;2022-11-12T10:47:34;12.20;99.90
5792;DHT22;2922;53.482;10.006;2022-11-12T10:52:36;12.20;99.90
5792;DHT22;2922;53.482;10.006;2022-11-12T10:55:23;12.40;99.90
5792;DHT22;2922;53.482;10.006;2022-11-12T11:00:34;12.60;99.90
5792;DHT22;2922;53.482;10.006;2022-11-12T11:03:03;12.70;99.90
5792;DHT22;2922;53.482;10.006;2022-11-12T11:06:06;12.90;99.90
5792;DHT22;2922;53.482;10.006;2022-11-12T11:08:47;12.90;99.90
5792;DHT22;2922;53.482;10.006;2022-11-12T11:11:20;13.00;99.90
5792;DHT22;2922;53.482;10.006;2022-11-12T11:13:47;13.10;99.90
5792;DHT22;2922;53.482;10.006;2022-11-12T11:16:25;13.10;99.90
5792;DHT22;2922;53.482;10.006;2022-11-12T11:19:03;13.20;99.90
5792;DHT22;2922;53.482;10.006;2022-11-12T11:24:33;13.30;99.90
5792;DHT22;2922;53.482;10.006;2022-11-12T11:27:31;13.30;99.90
5792;DHT22;2922;53.482;10.006;2022-11-12T11:30:10;13.30;99.90
5792;DHT22;2922;53.482;10.006;2022-11-12T11:38:31;13.60;99.90
5792;DHT22;2922;53.482;10.006;2022-11-12T11:41:26;13.50;99.90
5792;DHT22;2922;53.482;10.006;2022-11-12T11:44:16;13.40;99.90
5792;DHT22;2922;53.482;10.006;2022-11-12T11:50:15;13.40;99.90
5792;DHT22;2922;53.482;10.006;2022-11-12T11:55:56;13.50;99.90
5792;DHT22;2922;53.482;10.006;2022-11-12T12:07:36;13.70;99.90
5792;DHT22;2922;53.482;10.006;2022-11-12T12:10:24;13.40;99.90
5792;DHT22;2922;53.482;10.006;2022-11-12T12:13:11;13.40;99.90
5792;DHT22;2922;53.482;10.006;2022-11-12T12:21:05;13.20;99.90
5792;DHT22;2922;53.482;10.006;2022-11-12T12:23:44;13.20;99.90
5792;DHT22;2922;53.482;10.006;2022-11-12T12:29:17;13.10;99.90
5792;DHT22;2922;53.482;10.006;2022-11-12T12:31:50;13.10;99.90
5792;DHT22;2922;53.482;10.006;2022-11-12T12:34:25;13.20;99.90
5792;DHT22;2922;53.482;10.006;2022-11-12T12:39:57;13.20;99.90
5792;DHT22;2922;53.482;10.006;2022-11-12T12:42:36;13.10;99.90
5792;DHT22;2922;53.482;10.006;2022-11-12T12:45:40;13.10;99.90
5792;DHT22;2922;53.482;10.006;2022-11-12T12:48:11;13.20;99.90
5792;DHT22;2922;53.482;10.006;2022-11-12T12:50:38;13.20;99.90
5792;DHT22;2922;53.482;10.006;2022-11-12T12:55:53;13.20;99.90
5792;DHT22;2922;53.482;10.006;2022-11-12T13:01:02;13.00;99.90
5792;DHT22;2922;53.482;10.006;2022-11-12T13:17:07;12.80;99.90
5792;DHT22;2922;53.482;10.006;2022-11-12T13:19:34;12.80;99.90
5792;DHT22;2922;53.482;10.006;2022-11-12T13:50:55;12.60;99.90
5792;DHT22;2922;53.482;10.006;2022-11-12T13:53:24;12.60;99.90
5792;DHT22;2922;53.482;10.006;2022-11-12T13:55:52;12.50;99.90
5792;DHT22;2922;53.482;10.006;2022-11-12T13:58:24;12.60;99.90
5792;DHT22;2922;53.482;10.006;2022-11-12T14:00:54;12.50;99.90
5792;DHT22;2922;53.482;10.006;2022-11-12T14:03:21;12.50;99.90
5792;DHT22;2922;53.482;10.006;2022-11-12T14:05:48;12.50;99.90
5792;DHT22;2922;53.482;10.006;2022-11-12T14:16:16;12.30;99.90
5792;DHT22;2922;53.482;10.006;2022-11-12T14:19:29;12.30;99.90
5792;DHT22;2922;53.482;10.006;2022-11-12T14:24:40;12.40;99.90
5792;DHT22;2922;53.482;10.006;2022-11-12T14:30:14;12.40;99.90
5792;DHT22;2922;53.482;10.006;2022-11-12T14:32:42;12.30;99.90
5792;DHT22;2922;53.482;10.006;2022-11-12T14:40:30;12.20;99.90
5792;DHT22;2922;53.482;10.006;2022-11-12T14:42:57;12.10;99.90
5792;DHT22;2922;53.482;10.006;2022-11-12T14:45:23;12.00;99.90
5792;DHT22;2922;53.482;10.006;2022-11-12T14:47:50;12.00;99.90
5792;DHT22;2922;53.482;10.006;2022-11-12T14:50:27;11.90;99.90
5792;DHT22;2922;53.482;10.006;2022-11-12T14:52:59;11.90;99.90
5792;DHT22;2922;53.482;10.006;2022-11-12T14:55:34;11.80;99.90
5792;DHT22;2922;53.482;10.006;2022-11-12T14:58:01;11.80;99.90
5792;DHT22;2922;53.482;10.006;2022-11-12T15:02:59;11.60;99.90
5792;DHT22;2922;53.482;10.006;2022-11-12T15:05:26;11.50;99.90
5792;DHT22;2922;53.482;10.006;2022-11-12T15:08:04;11.40;99.90
5792;DHT22;2922;53.482;10.006;2022-11-12T15:10:48;11.30;99.90
5792;DHT22;2922;53.482;10.006;2022-11-12T15:13:19;11.20;99.90
5792;DHT22;2922;53.482;10.006;2022-11-12T15:15:51;11.20;99.90
5792;DHT22;2922;53.482;10.006;2022-11-12T15:18:20;11.10;99.90
5792;DHT22;2922;53.482;10.006;2022-11-12T15:21:26;11.00;99.90
5792;DHT22;2922;53.482;10.006;2022-11-12T15:24:06;10.90;99.90
5792;DHT22;2922;53.482;10.006;2022-11-12T15:26:45;10.90;99.90
5792;DHT22;2922;53.482;10.006;2022-11-12T15:29:27;10.80;99.90
5792;DHT22;2922;53.482;10.006;2022-11-12T15:31:57;10.70;99.90
5792;DHT22;2922;53.482;10.006;2022-11-12T15:34:42;10.60;99.90
5792;DHT22;2922;53.482;10.006;2022-11-12T15:39:50;10.50;99.90
5792;DHT22;2922;53.482;10.006;2022-11-12T15:42:25;10.50;99.90
5792;DHT22;2922;53.482;10.006;2022-11-12T15:45:00;10.40;99.90
5792;DHT22;2922;53.482;10.006;2022-11-12T15:47:26;10.40;99.90
5792;DHT22;2922;53.482;10.006;2022-11-12T15:49:54;10.30;99.90
5792;DHT22;2922;53.482;10.006;2022-11-12T15:52:20;10.20;99.90
5792;DHT22;2922;53.482;10.006;2022-11-12T15:54:46;10.20;99.90
5792;DHT22;2922;53.482;10.006;2022-11-12T15:57:16;10.10;99.90
5792;DHT22;2922;53.482;10.006;2022-11-12T15:59:43;10.00;99.90
5792;DHT22;2922;53.482;10.006;2022-11-12T16:02:13;9.90;99.90
5792;DHT22;2922;53.482;10.006;2022-11-12T16:04:39;9.90;99.90
5792;DHT22;2922;53.482;10.006;2022-11-12T16:07:04;9.80;99.90
5792;DHT22;2922;53.482;10.006;2022-11-12T16:09:32;9.70;99.90
5792;DHT22;2922;53.482;10.006;2022-11-12T16:11:58;9.60;99.90
5792;DHT22;2922;53.482;10.006;2022-11-12T16:14:26;9.50;99.90
5792;DHT22;2922;53.482;10.006;2022-11-12T16:16:52;9.40;99.90
5792;DHT22;2922;53.482;10.006;2022-11-12T16:19:17;9.30;99.90
5792;DHT22;2922;53.482;10.006;2022-11-12T16:21:43;9.20;99.90
5792;DHT22;2922;53.482;10.006;2022-11-12T16:24:09;9.20;99.90
5792;DHT22;2922;53.482;10.006;2022-11-12T16:26:35;9.10;99.90
5792;DHT22;2922;53.482;10.006;2022-11-12T16:29:02;9.00;99.90
5792;DHT22;2922;53.482;10.006;2022-11-12T16:31:28;9.00;99.90
5792;DHT22;2922;53.482;10.006;2022-11-12T16:33:53;8.90;99.90
5792;DHT22;2922;53.482;10.006;2022-11-12T16:36:19;8.90;99.90
5792;DHT22;2922;53.482;10.006;2022-11-12T16:38:45;8.80;99.90
5792;DHT22;2922;53.482;10.006;2022-11-12T16:41:12;8.80;99.90
5792;DHT22;2922;53.482;10.006;2022-11-12T16:43:39;8.70;99.90
5792;DHT22;2922;53.482;10.006;2022-11-12T16:46:24;8.60;99.90
5792;DHT22;2922;53.482;10.006;2022-11-12T16:48:51;8.50;99.90
5792;DHT22;2922;53.482;10.006;2022-11-12T16:51:17;8.40;99.90
5792;DHT22;2922;53.482;10.006;2022-11-12T16:53:44;8.40;99.90
5792;DHT22;2922;53.482;10.006;2022-11-12T16:56:28;8.40;99.90
5792;DHT22;2922;53.482;10.006;2022-11-12T16:58:53;8.30;99.90
5792;DHT22;2922;53.482;10.006;2022-11-12T17:01:28;8.20;99.90
5792;DHT22;2922;53.482;10.006;2022-11-12T17:03:55;8.10;99.90
5792;DHT22;2922;53.482;10.006;2022-11-12T17:06:23;8.10;99.90
5792;DHT22;2922;53.482;10.006;2022-11-12T17:08:55;8.00;99.90
5792;DHT22;2922;53.482;10.006;2022-11-12T17:11:21;7.90;99.90
5792;DHT22;2922;53.482;10.006;2022-11-12T17:13:46;7.90;99.90
5792;DHT22;2922;53.482;10.006;2022-11-12T17:16:12;7.80;99.90
5792;DHT22;2922;53.482;10.006;2022-11-12T17:18:37;7.80;99.90
5792;DHT22;2922;53.482;10.006;2022-11-12T17:21:12;7.70;99.90
5792;DHT22;2922;53.482;10.006;2022-11-12T17:23:38;7.60;99.90
5792;DHT22;2922;53.482;10.006;2022-11-12T17:26:06;7.60;99.90
5792;DHT22;2922;53.482;10.006;2022-11-12T17:28:32;7.60;99.90
5792;DHT22;2922;53.482;10.006;2022-11-12T17:31:15;7.50;99.90
5792;DHT22;2922;53.482;10.006;2022-11-12T17:33:48;7.50;99.90
5792;DHT22;2922;53.482;10.006;2022-11-12T17:36:17;7.40;99.90
5792;DHT22;2922;53.482;10.006;2022-11-12T17:38:42;7.30;99.90
5792;DHT22;2922;53.482;10.006;2022-11-12T17:41:09;7.30;99.90
5792;DHT22;2922;53.482;10.006;2022-11-12T17:43:35;7.30;99.90
5792;DHT22;2922;53.482;10.006;2022-11-12T17:46:02;7.30;99.90
5792;DHT22;2922;53.482;10.006;2022-11-12T17:48:33;7.20;99.90
5792;DHT22;2922;53.482;10.006;2022-11-12T17:51:10;7.30;99.90
5792;DHT22;2922;53.482;10.006;2022-11-12T17:53:37;7.20;99.90
5792;DHT22;2922;53.482;10.006;2022-11-12T17:56:03;7.20;99.90
5792;DHT22;2922;53.482;10.006;2022-11-12T17:58:29;7.20;99.90
5792;DHT22;2922;53.482;10.006;2022-11-12T18:01:11;7.10;99.90
5792;DHT22;2922;53.482;10.006;2022-11-12T18:03:39;7.10;99.90
5792;DHT22;2922;53.482;10.006;2022-11-12T18:06:05;7.00;99.90
5792;DHT22;2922;53.482;10.006;2022-11-12T18:08:30;7.00;99.90
5792;DHT22;2922;53.482;10.006;2022-11-12T18:10:56;6.90;99.90
5792;DHT22;2922;53.482;10.006;2022-11-12T18:13:22;6.90;99.90
5792;DHT22;2922;53.482;10.006;2022-11-12T18:15:47;6.80;99.90
5792;DHT22;2922;53.482;10.006;2022-11-12T18:18:13;6.80;99.90
5792;DHT22;2922;53.482;10.006;2022-11-12T18:20:39;6.70;99.90
5792;DHT22;2922;53.482;10.006;2022-11-12T18:23:06;6.70;99.90
5792;DHT22;2922;53.482;10.006;2022-11-12T18:25:34;6.70;99.90
5792;DHT22;2922;53.482;10.006;2022-11-12T18:28:00;6.70;99.90
5792;DHT22;2922;53.482;10.006;2022-11-12T18:30:26;6.60;99.90
5792;DHT22;2922;53.482;10.006;2022-11-12T18:32:51;6.60;99.90
5792;DHT22;2922;53.482;10.006;2022-11-12T18:35:17;6.60;99.90
5792;DHT22;2922;53.482;10.006;2022-11-12T18:37:42;6.60;99.90
5792;DHT22;2922;53.482;10.006;2022-11-12T18:40:08;6.60;99.90
5792;DHT22;2922;53.482;10.006;2022-11-12T18:42:34;6.60;99.90
5792;DHT22;2922;53.482;10.006;2022-11-12T18:44:59;6.50;99.90
5792;DHT22;2922;53.482;10.006;2022-11-12T18:47:25;6.50;99.90
5792;DHT22;2922;53.482;10.006;2022-11-12T18:49:50;6.50;99.90
5792;DHT22;2922;53.482;10.006;2022-11-12T18:52:16;6.50;99.90
5792;DHT22;2922;53.482;10.006;2022-11-12T18:54:41;6.40;99.90
5792;DHT22;2922;53.482;10.006;2022-11-12T18:57:07;6.40;99.90
5792;DHT22;2922;53.482;10.006;2022-11-12T18:59:33;6.40;99.90
5792;DHT22;2922;53.482;10.006;2022-11-12T19:01:58;6.40;99.90
5792;DHT22;2922;53.482;10.006;2022-11-12T19:04:24;6.40;99.90
5792;DHT22;2922;53.482;10.006;2022-11-12T19:06:50;6.30;99.90
5792;DHT22;2922;53.482;10.006;2022-11-12T19:09:15;6.30;99.90
5792;DHT22;2922;53.482;10.006;2022-11-12T19:11:42;6.30;99.90
5792;DHT22;2922;53.482;10.006;2022-11-12T19:14:08;6.20;99.90
5792;DHT22;2922;53.482;10.006;2022-11-12T19:16:34;6.20;99.90
5792;DHT22;2922;53.482;10.006;2022-11-12T19:19:00;6.20;99.90
5792;DHT22;2922;53.482;10.006;2022-11-12T19:21:26;6.20;99.90
5792;DHT22;2922;53.482;10.006;2022-11-12T19:23:53;6.20;99.90
5792;DHT22;2922;53.482;10.006;2022-11-12T19:26:19;6.20;99.90
5792;DHT22;2922;53.482;10.006;2022-11-12T19:28:44;6.30;99.90
5792;DHT22;2922;53.482;10.006;2022-11-12T19:31:21;6.30;99.90
5792;DHT22;2922;53.482;10.006;2022-11-12T19:33:48;6.30;99.90
5792;DHT22;2922;53.482;10.006;2022-11-12T19:36:16;6.30;99.90
5792;DHT22;2922;53.482;10.006;2022-11-12T19:38:42;6.30;99.90
5792;DHT22;2922;53.482;10.006;2022-11-12T19:41:10;6.30;99.90
5792;DHT22;2922;53.482;10.006;2022-11-12T19:43:36;6.30;99.90
5792;DHT22;2922;53.482;10.006;2022-11-12T19:46:02;6.20;99.90
5792;DHT22;2922;53.482;10.006;2022-11-12T19:48:28;6.20;99.90
5792;DHT22;2922;53.482;10.006;2022-11-12T19:51:03;6.20;99.90
5792;DHT22;2922;53.482;10.006;2022-11-12T19:53:34;6.20;99.90
5792;DHT22;2922;53.482;10.006;2022-11-12T19:56:04;6.20;99.90
5792;DHT22;2922;53.482;10.006;2022-11-12T19:58:30;6.20;99.90
5792;DHT22;2922;53.482;10.006;2022-11-12T20:01:03;6.10;99.90
5792;DHT22;2922;53.482;10.006;2022-11-12T20:03:29;6.10;99.90
5792;DHT22;2922;53.482;10.006;2022-11-12T20:06:21;6.10;99.90
5792;DHT22;2922;53.482;10.006;2022-11-12T20:08:51;6.00;99.90
5792;DHT22;2922;53.482;10.006;2022-11-12T20:11:17;6.00;99.90
5792;DHT22;2922;53.482;10.006;2022-11-12T20:13:44;6.00;99.90
5792;DHT22;2922;53.482;10.006;2022-11-12T20:16:12;6.00;99.90
5792;DHT22;2922;53.482;10.006;2022-11-12T20:18:38;6.00;99.90
5792;DHT22;2922;53.482;10.006;2022-11-12T20:21:04;6.00;99.90
5792;DHT22;2922;53.482;10.006;2022-11-12T20:23:31;6.00;99.90
5792;DHT22;2922;53.482;10.006;2022-11-12T20:26:12;6.00;99.90
5792;DHT22;2922;53.482;10.006;2022-11-12T20:28:39;6.00;99.90
5792;DHT22;2922;53.482;10.006;2022-11-12T20:31:10;5.90;99.90
5792;DHT22;2922;53.482;10.006;2022-11-12T20:33:37;5.90;99.90
5792;DHT22;2922;53.482;10.006;2022-11-12T20:36:08;5.90;99.90
5792;DHT22;2922;53.482;10.006;2022-11-12T20:38:39;5.80;99.90
5792;DHT22;2922;53.482;10.006;2022-11-12T20:41:06;5.80;99.90
5792;DHT22;2922;53.482;10.006;2022-11-12T20:43:35;5.70;99.90
5792;DHT22;2922;53.482;10.006;2022-11-12T20:46:00;5.70;99.90
5792;DHT22;2922;53.482;10.006;2022-11-12T20:48:26;5.70;99.90
5792;DHT22;2922;53.482;10.006;2022-11-12T20:51:06;5.70;99.90
5792;DHT22;2922;53.482;10.006;2022-11-12T20:53:32;5.70;99.90
5792;DHT22;2922;53.482;10.006;2022-11-12T20:56:25;5.70;99.90
5792;DHT22;2922;53.482;10.006;2022-11-12T20:58:51;5.60;99.90
5792;DHT22;2922;53.482;10.006;2022-11-12T21:01:19;5.60;99.90
5792;DHT22;2922;53.482;10.006;2022-11-12T21:03:46;5.60;99.90
5792;DHT22;2922;53.482;10.006;2022-11-12T21:06:14;5.60;99.90
5792;DHT22;2922;53.482;10.006;2022-11-12T21:08:41;5.50;99.90
5792;DHT22;2922;53.482;10.006;2022-11-12T21:11:09;5.50;99.90
5792;DHT22;2922;53.482;10.006;2022-11-12T21:13:36;5.40;99.90
5792;DHT22;2922;53.482;10.006;2022-11-12T21:16:03;5.40;99.90
5792;DHT22;2922;53.482;10.006;2022-11-12T21:18:29;5.40;99.90
5792;DHT22;2922;53.482;10.006;2022-11-12T21:21:13;5.40;99.90
5792;DHT22;2922;53.482;10.006;2022-11-12T21:23:40;5.40;99.90
5792;DHT22;2922;53.482;10.006;2022-11-12T21:26:16;5.30;99.90
5792;DHT22;2922;53.482;10.006;2022-11-12T21:28:46;5.30;99.90
5792;DHT22;2922;53.482;10.006;2022-11-12T21:31:18;5.30;99.90
5792;DHT22;2922;53.482;10.006;2022-11-12T21:33:48;5.30;99.90
5792;DHT22;2922;53.482;10.006;2022-11-12T21:36:13;5.30;99.90
5792;DHT22;2922;53.482;10.006;2022-11-12T21:38:39;5.20;99.90
5792;DHT22;2922;53.482;10.006;2022-11-12T21:41:10;5.20;99.90
5792;DHT22;2922;53.482;10.006;2022-11-12T21:43:37;5.20;99.90
5792;DHT22;2922;53.482;10.006;2022-11-12T21:48:33;5.10;99.90
5792;DHT22;2922;53.482;10.006;2022-11-12T21:51:07;5.10;99.90
5792;DHT22;2922;53.482;10.006;2022-11-12T21:53:33;5.10;99.90
5792;DHT22;2922;53.482;10.006;2022-11-12T21:56:08;5.00;99.90
5792;DHT22;2922;53.482;10.006;2022-11-12T21:58:34;5.00;99.90
5792;DHT22;2922;53.482;10.006;2022-11-12T22:01:12;5.00;99.90
5792;DHT22;2922;53.482;10.006;2022-11-12T22:03:38;5.00;99.90
5792;DHT22;2922;53.482;10.006;2022-11-12T22:06:05;5.00;99.90
5792;DHT22;2922;53.482;10.006;2022-11-12T22:08:31;5.00;99.90
5792;DHT22;2922;53.482;10.006;2022-11-12T22:13:33;4.90;99.90
5792;DHT22;2922;53.482;10.006;2022-11-12T22:16:22;4.90;99.90
5792;DHT22;2922;53.482;10.006;2022-11-12T22:18:50;4.90;99.90
5792;DHT22;2922;53.482;10.006;2022-11-12T22:21:21;4.80;99.90
5792;DHT22;2922;53.482;10.006;2022-11-12T22:23:47;4.80;99.90
5792;DHT22;2922;53.482;10.006;2022-11-12T22:26:18;4.80;99.90
5792;DHT22;2922;53.482;10.006;2022-11-12T22:28:45;4.80;99.90
5792;DHT22;2922;53.482;10.006;2022-11-12T22:31:14;4.80;99.90
5792;DHT22;2922;53.482;10.006;2022-11-12T22:33:40;4.80;99.90
5792;DHT22;2922;53.482;10.006;2022-11-12T22:36:11;4.70;99.90
5792;DHT22;2922;53.482;10.006;2022-11-12T22:38:41;4.70;99.90
5792;DHT22;2922;53.482;10.006;2022-11-12T22:41:19;4.70;99.90
5792;DHT22;2922;53.482;10.006;2022-11-12T22:43:49;4.70;99.90
5792;DHT22;2922;53.482;10.006;2022-11-12T22:46:18;4.70;99.90
5792;DHT22;2922;53.482;10.006;2022-11-12T22:48:44;4.70;99.90
5792;DHT22;2922;53.482;10.006;2022-11-12T22:51:18;4.60;99.90
5792;DHT22;2922;53.482;10.006;2022-11-12T22:53:45;4.60;99.90
5792;DHT22;2922;53.482;10.006;2022-11-12T22:56:15;4.60;99.90
5792;DHT22;2922;53.482;10.006;2022-11-12T22:58:43;4.60;99.90
5792;DHT22;2922;53.482;10.006;2022-11-12T23:01:17;4.60;99.90
5792;DHT22;2922;53.482;10.006;2022-11-12T23:03:43;4.60;99.90
5792;DHT22;2922;53.482;10.006;2022-11-12T23:06:09;4.60;99.90
5792;DHT22;2922;53.482;10.006;2022-11-12T23:08:34;4.60;99.90
5792;DHT22;2922;53.482;10.006;2022-11-12T23:11:09;4.50;99.90
5792;DHT22;2922;53.482;10.006;2022-11-12T23:13:35;4.50;99.90
5792;DHT22;2922;53.482;10.006;2022-11-12T23:16:05;4.50;99.90
5792;DHT22;2922;53.482;10.006;2022-11-12T23:18:31;4.50;99.90
5792;DHT22;2922;53.482;10.006;2022-11-12T23:21:04;4.50;99.90
5792;DHT22;2922;53.482;10.006;2022-11-12T23:23:30;4.50;99.90
5792;DHT22;2922;53.482;10.006;2022-11-12T23:26:17;4.50;99.90
5792;DHT22;2922;53.482;10.006;2022-11-12T23:28:43;4.50;99.90
5792;DHT22;2922;53.482;10.006;2022-11-12T23:31:19;4.50;99.90
5792;DHT22;2922;53.482;10.006;2022-11-12T23:33:47;4.40;99.90
5792;DHT22;2922;53.482;10.006;2022-11-12T23:36:13;4.40;99.90
5792;DHT22;2922;53.482;10.006;2022-11-12T23:38:39;4.40;99.90
5792;DHT22;2922;53.482;10.006;2022-11-12T23:41:05;4.40;99.90
5792;DHT22;2922;53.482;10.006;2022-11-12T23:43:31;4.40;99.90
5792;DHT22;2922;53.482;10.006;2022-11-12T23:45:57;4.40;99.90
5792;DHT22;2922;53.482;10.006;2022-11-12T23:48:23;4.40;99.90
5792;DHT22;2922;53.482;10.006;2022-11-12T23:50:50;4.40;99.90
5792;DHT22;2922;53.482;10.006;2022-11-12T23:53:16;4.30;99.90
5792;DHT22;2922;53.482;10.006;2022-11-12T23:55:42;4.30;99.90
5792;DHT22;2922;53.482;10.006;2022-11-12T23:58:08;4.30;99.90
